Archival Weather

Norman Y Mineta San Jose Intl

San Jose, California (KSJC)

Report from: Wednesday, February 21, 2024 8:53 AM PST
Current time: Monday, June 17, 2024 12:09 AM PDT

Current weather – Weather history – Daily summaries
Weather forecast

Temperature9.4°C (48.9°F)
Wind chill8.4°C (47.2°F)
Dew point8.3°C (46.9°F)
Winds 4 kts (2.1 m/s, 4.6 mph) Southeast (130°)
Visibility10 mi. (16.1 km)
Clouds Few clouds 0 ft. (0 m)
Few clouds 400 ft. (122 m)
Few clouds 700 ft. (213 m)
Altimeter30.16 in.Hg (1021 mB)
Relative humidity93 %
Density altitude-784 ft. (-239 m)
Sea-level pressure102.1 kPa (1021 mB, 30.16 in.Hg)
Remarks Corrected report
Automated weather observing station with precipitation discriminator
Visibility north northeast east southeast
Flight conditions Visual Meteorological Conditions
Raw dataKSJC 211653Z COR 13004KT 10SM R30L/1600VP6000FT FEW000 FEW004 FEW007 09/08 A3016 RMK AO2 SLP212 VIS N 2 1/2 NE 1 E 1/4 SE 1/4 FEW000 T00940083
An error has occurred. This application may no longer respond until reloaded. Reload 🗙